createdAt,value
2018-11-21T00:02:05.337Z,3.00
2018-11-21T00:04:46.445Z,3.00
2018-11-21T00:07:28.237Z,3.00
2018-11-21T00:10:07.128Z,2.90
2018-11-21T00:12:56.226Z,2.90
2018-11-21T00:15:44.671Z,3.00
2018-11-21T00:18:33.109Z,2.90
2018-11-21T00:21:21.611Z,2.90
2018-11-21T00:24:10.091Z,2.80
2018-11-21T00:26:58.702Z,2.80
2018-11-21T00:29:47.134Z,2.80
2018-11-21T00:32:35.591Z,2.80
2018-11-21T00:35:23.981Z,2.80
2018-11-21T00:41:25.809Z,2.70
2018-11-21T00:44:14.241Z,2.60
2018-11-21T00:47:02.711Z,2.60
2018-11-21T00:49:51.208Z,2.60
2018-11-21T00:52:39.665Z,2.70
2018-11-21T00:55:08.803Z,2.70
2018-11-21T00:57:57.211Z,2.70
2018-11-21T01:00:45.697Z,2.70
2018-11-21T01:03:34.160Z,2.70
2018-11-21T01:06:22.631Z,2.70
2018-11-21T01:09:11.967Z,2.70
2018-11-21T01:15:13.862Z,2.70
2018-11-21T01:18:02.376Z,2.70
2018-11-21T01:20:50.767Z,2.70
2018-11-21T01:23:39.218Z,2.70
2018-11-21T01:26:27.654Z,2.70
2018-11-21T01:29:16.138Z,2.80
2018-11-21T01:32:04.656Z,2.70
2018-11-21T01:34:53.096Z,2.70
2018-11-21T01:37:41.508Z,2.70
2018-11-21T01:40:29.969Z,2.60
2018-11-21T01:43:18.422Z,2.60
2018-11-21T01:46:06.834Z,2.50
2018-11-21T01:48:55.247Z,2.50
2018-11-21T01:51:43.679Z,2.40
2018-11-21T01:54:32.189Z,2.40
2018-11-21T01:57:20.591Z,2.40
2018-11-21T02:03:17.508Z,2.30
2018-11-21T02:06:05.148Z,2.30
2018-11-21T02:08:53.564Z,2.30
2018-11-21T02:11:41.980Z,2.20
2018-11-21T02:14:30.435Z,2.20
2018-11-21T02:17:18.817Z,2.20
2018-11-21T02:23:22.334Z,2.10
2018-11-21T02:26:10.766Z,2.10
2018-11-21T02:28:59.238Z,2.00
2018-11-21T02:31:47.635Z,2.00
2018-11-21T02:34:36.088Z,2.00
2018-11-21T02:40:32.087Z,1.90
2018-11-21T02:43:20.492Z,1.90
2018-11-21T02:49:22.506Z,1.80
2018-11-21T02:52:11.010Z,1.80
2018-11-21T02:55:17.543Z,1.90
2018-11-21T02:58:06.044Z,1.80
2018-11-21T03:00:54.562Z,1.80
2018-11-21T03:03:42.979Z,1.80
2018-11-21T03:06:31.427Z,1.70
2018-11-21T03:09:19.894Z,1.70
2018-11-21T03:12:08.929Z,1.70
2018-11-21T03:14:57.341Z,1.70
2018-11-21T03:20:59.879Z,1.80
2018-11-21T03:27:14.552Z,1.80
2018-11-21T03:30:03.621Z,1.90
2018-11-21T03:32:52.049Z,1.80
2018-11-21T03:35:40.501Z,1.80
2018-11-21T03:38:28.896Z,1.70
2018-11-21T03:41:17.520Z,1.70
2018-11-21T03:44:05.957Z,1.60
2018-11-21T03:46:54.411Z,1.70
2018-11-21T03:49:42.844Z,1.70
2018-11-21T03:52:31.299Z,1.60
2018-11-21T03:55:00.341Z,1.60
2018-11-21T03:57:48.809Z,1.60
2018-11-21T04:00:37.199Z,1.60
2018-11-21T04:03:25.643Z,1.60
2018-11-21T04:06:14.035Z,1.50
2018-11-21T04:09:02.602Z,1.50
2018-11-21T04:11:50.997Z,1.40
2018-11-21T04:14:39.496Z,1.40
2018-11-21T04:17:27.914Z,1.40
2018-11-21T04:20:54.943Z,1.40
2018-11-21T04:23:43.394Z,1.30
2018-11-21T04:29:45.344Z,1.30
2018-11-21T04:32:33.816Z,1.30
2018-11-21T04:38:36.832Z,1.20
2018-11-21T04:41:25.268Z,1.20
2018-11-21T04:44:13.705Z,1.20
2018-11-21T04:49:58.953Z,1.20
2018-11-21T04:52:48.605Z,1.10
2018-11-21T04:55:17.652Z,1.10
2018-11-21T04:58:06.119Z,1.10
2018-11-21T05:00:54.616Z,1.00
2018-11-21T05:03:43.315Z,1.00
2018-11-21T05:06:31.768Z,1.00
2018-11-21T05:09:20.585Z,0.90
2018-11-21T05:12:09.062Z,0.90
2018-11-21T05:14:57.593Z,0.90
2018-11-21T05:17:45.999Z,0.90
2018-11-21T05:20:34.425Z,0.90
2018-11-21T05:23:22.820Z,0.90
2018-11-21T05:26:11.388Z,0.90
2018-11-21T05:28:59.796Z,1.00
2018-11-21T05:31:48.231Z,1.00
2018-11-21T05:34:36.811Z,1.00
2018-11-21T05:40:52.492Z,0.90
2018-11-21T05:43:40.874Z,1.00
2018-11-21T05:46:29.328Z,1.00
2018-11-21T05:49:17.765Z,1.00
2018-11-21T05:52:06.234Z,1.00
2018-11-21T05:54:54.738Z,1.00
2018-11-21T05:57:43.160Z,0.90
2018-11-21T06:00:31.605Z,0.80
2018-11-21T06:03:20.041Z,0.80
2018-11-21T06:06:10.054Z,0.80
2018-11-21T06:09:30.889Z,0.80
2018-11-21T06:12:20.643Z,0.70
2018-11-21T06:18:23.771Z,0.70
2018-11-21T06:24:25.747Z,0.80
2018-11-21T06:27:14.135Z,0.80
2018-11-21T06:30:02.845Z,0.80
2018-11-21T06:32:51.335Z,0.80
2018-11-21T06:35:39.771Z,0.80
2018-11-21T06:38:28.195Z,0.90
2018-11-21T06:41:16.616Z,0.90
2018-11-21T06:44:05.231Z,0.90
2018-11-21T06:50:01.334Z,0.80
2018-11-21T06:52:50.307Z,0.80
2018-11-21T06:55:38.691Z,0.80
2018-11-21T06:58:27.173Z,0.70
2018-11-21T07:01:15.554Z,0.70
2018-11-21T07:04:03.990Z,0.80
2018-11-21T07:06:52.400Z,0.80
2018-11-21T07:09:40.821Z,0.80
2018-11-21T07:12:29.690Z,0.70
2018-11-21T07:15:18.153Z,0.80
2018-11-21T07:18:06.542Z,0.90
2018-11-21T07:20:54.977Z,0.90
2018-11-21T07:23:43.456Z,0.90
2018-11-21T07:26:31.786Z,0.90
2018-11-21T07:29:20.285Z,0.90
2018-11-21T07:32:08.696Z,0.90
2018-11-21T07:34:57.431Z,0.90
2018-11-21T07:37:45.830Z,1.00
2018-11-21T07:40:34.245Z,1.00
2018-11-21T07:43:22.701Z,1.10
2018-11-21T07:46:11.190Z,1.10
2018-11-21T07:48:59.588Z,1.20
2018-11-21T07:51:48.039Z,1.30
2018-11-21T07:54:36.487Z,1.40
2018-11-21T08:01:32.113Z,1.50
2018-11-21T08:04:39.648Z,1.50
2018-11-21T08:07:30.001Z,1.60
2018-11-21T08:10:37.609Z,1.80
2018-11-21T08:13:45.184Z,1.80
2018-11-21T08:16:52.884Z,1.80
2018-11-21T08:20:00.598Z,1.90
2018-11-21T08:23:08.199Z,1.90
2018-11-21T08:26:17.518Z,2.00
2018-11-21T08:29:05.957Z,2.10
2018-11-21T08:31:54.382Z,2.10
2018-11-21T08:34:42.361Z,2.10
2018-11-21T08:37:30.804Z,2.20
2018-11-21T08:43:26.916Z,2.40
2018-11-21T08:46:15.396Z,2.50
2018-11-21T08:49:03.830Z,2.60
2018-11-21T08:51:52.300Z,2.60
2018-11-21T08:54:40.723Z,2.70
2018-11-21T08:57:29.149Z,2.70
2018-11-21T09:00:17.574Z,2.80
2018-11-21T09:03:06.564Z,2.90
2018-11-21T09:05:54.994Z,3.00
2018-11-21T09:18:07.899Z,3.30
2018-11-21T09:24:10.533Z,3.40
2018-11-21T09:26:58.934Z,3.50
2018-11-21T09:29:47.399Z,3.70
2018-11-21T09:32:35.788Z,3.80
2018-11-21T09:35:24.249Z,3.80
2018-11-21T09:38:12.761Z,3.90
2018-11-21T09:41:01.162Z,4.00
2018-11-21T09:43:49.610Z,4.10
2018-11-21T09:46:38.000Z,4.20
2018-11-21T09:49:26.563Z,4.30
2018-11-21T09:52:15.007Z,4.50
2018-11-21T09:55:03.462Z,4.60
2018-11-21T09:57:51.888Z,4.70
2018-11-21T10:00:59.746Z,4.70
2018-11-21T10:03:48.136Z,4.80
2018-11-21T10:06:37.579Z,4.90
2018-11-21T10:09:28.971Z,5.00
2018-11-21T10:12:17.397Z,5.00
2018-11-21T10:18:20.253Z,5.20
2018-11-21T10:21:10.801Z,5.40
2018-11-21T10:23:59.228Z,5.50
2018-11-21T10:26:47.664Z,5.50
2018-11-21T10:29:36.099Z,5.50
2018-11-21T10:32:24.546Z,5.60
2018-11-21T10:35:12.962Z,5.70
2018-11-21T10:38:01.401Z,5.80
2018-11-21T10:40:49.852Z,5.80
2018-11-21T10:43:38.515Z,5.80
2018-11-21T10:46:26.968Z,6.00
2018-11-21T10:49:15.366Z,6.10
2018-11-21T10:52:03.804Z,6.20
2018-11-21T10:57:44.078Z,6.30
2018-11-21T11:00:51.631Z,6.30
2018-11-21T11:03:59.218Z,6.30
2018-11-21T11:07:06.834Z,6.30
2018-11-21T11:13:35.405Z,6.60
2018-11-21T11:16:40.577Z,6.50
2018-11-21T11:19:48.190Z,6.30
2018-11-21T11:26:05.975Z,6.00
2018-11-21T11:29:13.548Z,5.90
2018-11-21T11:32:21.164Z,6.00
2018-11-21T11:39:04.579Z,6.10
2018-11-21T11:42:12.144Z,6.20
2018-11-21T11:45:19.728Z,6.40
2018-11-21T11:51:44.191Z,6.70
2018-11-21T11:54:51.794Z,6.80
2018-11-21T11:57:49.580Z,6.80
2018-11-21T12:00:57.519Z,6.90
2018-11-21T12:04:05.087Z,6.90
2018-11-21T12:07:12.682Z,6.90
2018-11-21T12:10:20.238Z,6.80
2018-11-21T12:13:27.834Z,6.70
2018-11-21T12:19:25.258Z,6.80
2018-11-21T12:22:32.862Z,6.90
2018-11-21T12:25:31.153Z,6.90
2018-11-21T12:28:38.742Z,6.80
2018-11-21T12:31:46.359Z,6.70
2018-11-21T12:34:53.996Z,6.70
2018-11-21T12:38:01.629Z,6.70
2018-11-21T12:41:09.502Z,6.80
2018-11-21T12:44:17.065Z,7.00
2018-11-21T12:47:24.675Z,7.10
2018-11-21T12:50:32.287Z,7.10
2018-11-21T12:53:39.907Z,7.10
2018-11-21T12:56:26.814Z,7.30
2018-11-21T12:59:34.439Z,7.40
2018-11-21T13:02:42.075Z,7.30
2018-11-21T13:05:49.648Z,7.20
2018-11-21T13:08:57.295Z,7.10
2018-11-21T13:12:04.926Z,7.10
2018-11-21T13:15:12.569Z,7.10
2018-11-21T13:18:20.185Z,7.10
2018-11-21T13:21:27.809Z,7.20
2018-11-21T13:24:35.386Z,7.20
2018-11-21T13:27:43.071Z,7.10
2018-11-21T13:30:50.644Z,7.20
2018-11-21T13:37:25.012Z,7.10
2018-11-21T13:40:32.612Z,6.90
2018-11-21T13:43:29.149Z,6.90
2018-11-21T13:49:41.585Z,6.80
2018-11-21T13:52:49.158Z,6.60
2018-11-21T13:55:37.615Z,6.50
2018-11-21T13:58:26.028Z,6.40
2018-11-21T14:01:14.460Z,6.30
2018-11-21T14:04:02.882Z,6.20
2018-11-21T14:06:51.356Z,6.20
2018-11-21T14:09:39.830Z,6.20
2018-11-21T14:12:28.278Z,6.10
2018-11-21T14:15:16.767Z,6.00
2018-11-21T14:18:05.514Z,5.90
2018-11-21T14:20:53.939Z,5.90
2018-11-21T14:23:42.378Z,5.80
2018-11-21T14:26:30.869Z,5.80
2018-11-21T14:29:19.392Z,5.80
2018-11-21T14:32:07.797Z,5.80
2018-11-21T14:34:56.228Z,5.80
2018-11-21T14:37:44.797Z,5.80
2018-11-21T14:40:33.265Z,5.70
2018-11-21T14:43:21.671Z,5.60
2018-11-21T14:46:10.697Z,5.50
2018-11-21T14:48:40.184Z,5.40
2018-11-21T14:51:28.802Z,5.30
2018-11-21T14:54:17.320Z,5.30
2018-11-21T14:57:06.025Z,5.30
2018-11-21T15:02:52.010Z,5.20
2018-11-21T15:05:40.472Z,5.20
2018-11-21T15:08:28.891Z,5.10
2018-11-21T15:11:17.365Z,5.10
2018-11-21T15:14:05.853Z,5.00
2018-11-21T15:20:08.949Z,4.90
2018-11-21T15:22:57.358Z,4.90
2018-11-21T15:25:45.800Z,4.80
2018-11-21T15:28:34.195Z,4.70
2018-11-21T15:31:22.655Z,4.60
2018-11-21T15:37:25.356Z,4.60
2018-11-21T15:40:24.189Z,4.50
2018-11-21T15:43:12.624Z,4.60
2018-11-21T15:46:01.071Z,4.50
2018-11-21T15:48:49.623Z,4.50
2018-11-21T15:51:38.771Z,4.50
2018-11-21T15:54:27.254Z,4.50
2018-11-21T15:57:15.749Z,4.40
2018-11-21T16:00:05.330Z,4.40
2018-11-21T16:02:55.466Z,4.40
2018-11-21T16:05:43.852Z,4.30
2018-11-21T16:08:32.317Z,4.30
2018-11-21T16:11:22.562Z,4.30
2018-11-21T16:14:09.260Z,4.30
2018-11-21T16:16:57.721Z,4.20
2018-11-21T16:19:46.145Z,4.30
2018-11-21T16:22:34.605Z,4.30
2018-11-21T16:31:44.897Z,4.20
2018-11-21T16:34:33.400Z,4.20
2018-11-21T16:37:22.037Z,4.20
2018-11-21T16:40:11.734Z,4.20
2018-11-21T16:46:08.238Z,4.10
2018-11-21T16:48:56.655Z,4.10
2018-11-21T16:51:45.101Z,4.10
2018-11-21T16:54:33.539Z,4.00
2018-11-21T16:57:22.011Z,4.00
2018-11-21T17:00:11.938Z,3.90
2018-11-21T17:03:00.470Z,3.90
2018-11-21T17:05:48.896Z,3.90
2018-11-21T17:08:37.360Z,3.90
2018-11-21T17:11:25.810Z,3.80
2018-11-21T17:14:14.317Z,3.80
2018-11-21T17:17:03.128Z,3.80
2018-11-21T17:19:51.586Z,3.80
2018-11-21T17:22:40.101Z,3.60
2018-11-21T17:25:30.329Z,3.50
2018-11-21T17:28:18.743Z,3.50
2018-11-21T17:31:07.177Z,3.40
2018-11-21T17:33:55.630Z,3.40
2018-11-21T17:36:44.098Z,3.30
2018-11-21T17:39:32.505Z,3.30
2018-11-21T17:42:21.011Z,3.30
2018-11-21T17:45:08.512Z,3.20
2018-11-21T17:51:10.749Z,3.20
2018-11-21T17:56:54.641Z,3.20
2018-11-21T17:59:42.695Z,3.10
2018-11-21T18:05:44.895Z,3.00
2018-11-21T18:08:33.392Z,2.90
2018-11-21T18:11:21.909Z,3.00
2018-11-21T18:14:10.279Z,2.90
2018-11-21T18:16:58.704Z,2.80
2018-11-21T18:19:47.104Z,2.90
2018-11-21T18:25:49.836Z,2.90
2018-11-21T18:31:52.233Z,2.90
2018-11-21T18:34:40.644Z,2.90
2018-11-21T18:37:29.082Z,2.80
2018-11-21T18:40:19.104Z,2.80
2018-11-21T18:43:07.608Z,2.70
2018-11-21T18:49:03.554Z,2.60
2018-11-21T18:51:52.006Z,2.60
2018-11-21T18:54:40.449Z,2.70
2018-11-21T18:57:48.322Z,2.60
2018-11-21T19:00:37.045Z,2.60
2018-11-21T19:03:25.966Z,2.50
2018-11-21T19:06:14.422Z,2.40
2018-11-21T19:09:03.076Z,2.40
2018-11-21T19:15:07.611Z,2.50
2018-11-21T19:17:56.023Z,2.60
2018-11-21T19:20:44.447Z,2.50
2018-11-21T19:23:32.951Z,2.50
2018-11-21T19:26:21.422Z,2.50
2018-11-21T19:29:10.070Z,2.60
2018-11-21T19:31:58.561Z,2.70
2018-11-21T19:34:47.007Z,2.80
2018-11-21T19:37:35.428Z,2.80
2018-11-21T19:40:23.896Z,2.90
2018-11-21T19:46:26.658Z,3.00
2018-11-21T19:52:22.666Z,3.10
2018-11-21T19:55:12.883Z,3.30
2018-11-21T19:57:42.540Z,3.30
2018-11-21T20:00:32.195Z,3.40
2018-11-21T20:03:20.653Z,3.50
2018-11-21T20:06:09.276Z,3.60
2018-11-21T20:08:57.686Z,3.60
2018-11-21T20:18:14.372Z,3.70
2018-11-21T20:21:02.856Z,3.70
2018-11-21T20:23:51.307Z,3.60
2018-11-21T20:26:39.756Z,3.60
2018-11-21T20:29:28.184Z,3.60
2018-11-21T20:32:16.617Z,3.70
2018-11-21T20:35:07.942Z,3.80
2018-11-21T20:37:53.837Z,3.80
2018-11-21T20:43:52.006Z,3.90
2018-11-21T20:49:48.092Z,3.90
2018-11-21T20:52:36.570Z,4.00
2018-11-21T20:58:14.723Z,4.00
2018-11-21T21:01:03.121Z,4.00
2018-11-21T21:03:51.657Z,4.00
2018-11-21T21:06:40.091Z,4.00
2018-11-21T21:09:28.497Z,4.00
2018-11-21T21:12:09.616Z,4.00
2018-11-21T21:14:50.790Z,4.00
2018-11-21T21:17:31.907Z,4.10
2018-11-21T21:20:14.746Z,4.10
2018-11-21T21:22:57.989Z,4.20
2018-11-21T21:25:39.416Z,4.10
2018-11-21T21:28:21.346Z,4.10
2018-11-21T21:31:03.194Z,4.20
2018-11-21T21:33:44.940Z,4.10
2018-11-21T21:36:26.020Z,4.10
2018-11-21T21:39:07.131Z,4.20
2018-11-21T21:41:48.740Z,4.20
2018-11-21T21:44:30.339Z,4.10
2018-11-21T21:47:12.253Z,4.10
2018-11-21T21:50:02.242Z,4.10
2018-11-21T21:52:43.552Z,4.10
2018-11-21T21:55:26.376Z,4.10
2018-11-21T21:58:07.971Z,4.10
2018-11-21T22:00:49.536Z,4.20
2018-11-21T22:03:30.675Z,4.20
2018-11-21T22:06:11.958Z,4.20
2018-11-21T22:08:53.498Z,4.20
2018-11-21T22:11:35.046Z,4.30
2018-11-21T22:14:16.229Z,4.30
2018-11-21T22:16:57.737Z,4.30
2018-11-21T22:19:39.139Z,4.20
2018-11-21T22:22:20.343Z,4.20
2018-11-21T22:25:01.630Z,4.20
2018-11-21T22:27:42.840Z,4.10
2018-11-21T22:30:24.008Z,4.00
2018-11-21T22:33:05.782Z,4.10
2018-11-21T22:35:47.643Z,4.00
2018-11-21T22:38:30.963Z,3.90
2018-11-21T22:41:09.908Z,3.90
2018-11-21T22:43:51.163Z,3.90
2018-11-21T22:46:32.271Z,3.90
2018-11-21T22:49:13.843Z,4.00
2018-11-21T22:51:55.676Z,3.90
2018-11-21T22:54:36.875Z,4.00
2018-11-21T22:57:06.115Z,4.00
2018-11-21T22:59:54.570Z,4.00
2018-11-21T23:02:43.101Z,4.00
2018-11-21T23:05:34.195Z,4.00
2018-11-21T23:08:19.997Z,4.00
2018-11-21T23:11:15.315Z,4.00
2018-11-21T23:14:03.713Z,4.00
2018-11-21T23:16:52.113Z,4.00
2018-11-21T23:19:40.597Z,4.00
2018-11-21T23:22:32.560Z,4.00
2018-11-21T23:25:17.529Z,4.00
2018-11-21T23:28:05.979Z,4.10
2018-11-21T23:30:54.467Z,4.00
2018-11-21T23:33:42.908Z,4.10
2018-11-21T23:36:31.370Z,4.00
2018-11-21T23:39:19.817Z,4.00
2018-11-21T23:42:08.285Z,4.00
2018-11-21T23:44:56.700Z,4.10
2018-11-21T23:47:45.474Z,4.10
2018-11-21T23:50:33.928Z,4.10
2018-11-21T23:53:22.379Z,4.00
2018-11-21T23:56:10.855Z,4.10
2018-11-21T23:58:40.025Z,4.10
